Time;durP1;ratioP1;P1;durP2;ratioP2;P2;SDS_P1;SDS_P2;PMS_P1;PMS_P2;Temp;Humidity;BMP_temperature;BMP_pressure;BME280_temperature;BME280_humidity;BME280_pressure;Samples;Min_cycle;Max_cycle;Signal;HPM_P1;HPM_P2
2022/02/11 00:01:16;;;;;;;19.77;12.07;;;6.70;99.90;;;;;;5008232;28;20075;-53
2022/02/11 00:08:52;;;;;;;19.17;12.63;;;6.70;99.90;;;;;;5023898;28;20413;-49
2022/02/11 00:11:21;;;;;;;22.85;12.77;;;6.70;99.90;;;;;;5023718;28;20025;-46
2022/02/11 00:13:46;;;;;;;21.13;13.07;;;6.70;99.90;;;;;;5021095;28;20152;-50
2022/02/11 00:16:12;;;;;;;21.20;13.52;;;6.60;99.90;;;;;;5022083;28;20096;-50
2022/02/11 00:18:38;;;;;;;21.00;14.48;;;6.60;99.90;;;;;;5020478;28;20026;-45
2022/02/11 00:21:03;;;;;;;18.85;11.63;;;6.60;99.90;;;;;;5014247;28;20117;-45
2022/02/11 00:23:31;;;;;;;8.82;6.93;;;6.60;99.90;;;;;;5023243;28;20481;-48
2022/02/11 00:26:02;;;;;;;4.55;4.05;;;6.60;99.90;;;;;;5030657;28;20017;-45
2022/02/11 00:33:39;;;;;;;1.48;1.40;;;6.50;99.90;;;;;;5035527;28;20045;-45
2022/02/11 00:36:08;;;;;;;1.40;1.30;;;6.50;99.90;;;;;;5035216;28;20017;-40
2022/02/11 00:39:00;;;;;;;1.45;1.00;;;6.40;99.90;;;;;;5035237;28;20049;-41
2022/02/11 00:47:09;;;;;;;125.22;68.43;;;6.20;99.90;;;;;;5035055;28;20499;-44
2022/02/11 01:06:01;;;;;;;0.70;0.47;;;6.00;99.90;;;;;;5015014;28;20075;-47
2022/02/11 01:08:26;;;;;;;0.60;0.60;;;5.80;99.90;;;;;;5034606;28;20025;-51
2022/02/11 01:10:52;;;;;;;0.60;0.60;;;5.80;99.90;;;;;;5034107;28;20033;-47
2022/02/11 01:13:17;;;;;;;0.70;0.70;;;5.70;99.90;;;;;;5034082;28;20025;-47
2022/02/11 01:15:51;;;;;;;0.50;0.50;;;5.70;99.90;;;;;;5034464;28;20017;-48
2022/02/11 01:18:16;;;;;;;0.52;0.52;;;5.60;99.90;;;;;;5034436;28;20017;-48
2022/02/11 01:23:41;;;;;;;0.40;0.40;;;5.60;99.90;;;;;;5034800;28;20108;-46
2022/02/11 01:26:23;;;;;;;1.10;0.50;;;5.60;99.90;;;;;;5035069;28;20017;-45
2022/02/11 01:34:54;;;;;;;0.50;0.50;;;5.60;99.90;;;;;;5034441;28;20053;-47
2022/02/11 01:43:46;;;;;;;0.60;0.60;;;5.40;99.90;;;;;;5034865;28;20493;-40
2022/02/11 01:47:59;;;;;;;0.60;0.60;;;5.30;99.90;;;;;;5034063;28;20025;-46
2022/02/11 01:56:19;;;;;;;1.15;0.57;;;5.20;99.90;;;;;;4972295;28;20030;-53
2022/02/11 01:59:30;;;;;;;1.65;1.02;;;5.20;99.90;;;;;;5025960;28;20034;-45
2022/02/11 02:02:32;;;;;;;0.65;0.65;;;5.30;99.90;;;;;;5033604;28;20079;-43
2022/02/11 02:26:40;;;;;;;0.63;0.63;;;5.10;99.90;;;;;;5033174;28;20025;-47
2022/02/11 02:32:37;;;;;;;2.75;0.60;;;5.00;99.90;;;;;;5032981;28;20432;-44
2022/02/11 02:59:00;;;;;;;;;;;4.90;99.90;;;;;;5032980;28;20028;-46
2022/02/11 03:01:38;;;;;;;0.90;0.50;;;4.90;99.90;;;;;;5032496;28;19992;-45
2022/02/11 03:31:30;;;;;;;0.65;0.65;;;5.00;99.90;;;;;;5032257;28;20120;-48
2022/02/11 04:20:38;;;;;;;3.58;1.80;;;4.40;99.90;;;;;;5031212;28;20052;-46
2022/02/11 04:24:55;;;;;;;1.98;1.80;;;4.30;99.90;;;;;;5030981;28;20439;-47
2022/02/11 04:56:05;;;;;;;3.03;2.08;;;3.50;99.90;;;;;;5031069;28;20087;-47
2022/02/11 05:01:17;;;;;;;2.47;2.28;;;3.50;99.90;;;;;;5031544;28;20076;-49
2022/02/11 05:03:42;;;;;;;2.50;2.22;;;3.60;99.90;;;;;;5030957;28;20370;-51
2022/02/11 05:06:09;;;;;;;2.58;2.40;;;3.50;99.90;;;;;;5031042;28;20079;-39
2022/02/11 05:08:35;;;;;;;2.92;2.55;;;3.50;99.90;;;;;;5031009;28;20067;-45
2022/02/11 05:11:00;;;;;;;7.03;3.83;;;3.50;99.90;;;;;;5031114;28;20037;-44
2022/02/11 05:13:26;;;;;;;7.25;4.63;;;3.40;99.90;;;;;;5033550;28;20021;-45
2022/02/11 05:15:52;;;;;;;7.63;3.40;;;3.40;99.90;;;;;;5034687;28;20075;-40
2022/02/11 05:18:17;;;;;;;4.82;3.22;;;3.40;99.90;;;;;;5034624;28;20045;-47
2022/02/11 05:20:43;;;;;;;4.85;2.55;;;3.40;99.90;;;;;;5034505;28;20057;-50
2022/02/11 05:23:13;;;;;;;2.47;2.28;;;3.60;99.90;;;;;;5034412;28;20029;-47
2022/02/11 05:25:41;;;;;;;3.30;3.00;;;3.30;99.90;;;;;;5034408;28;20143;-42
2022/02/11 05:28:08;;;;;;;2.72;2.45;;;3.30;99.90;;;;;;5034363;28;20108;-46
2022/02/11 05:30:34;;;;;;;3.85;3.03;;;3.20;99.90;;;;;;5034492;28;20096;-52
2022/02/11 05:33:01;;;;;;;5.55;2.92;;;3.10;99.90;;;;;;5033875;28;20054;-49
2022/02/11 05:35:27;;;;;;;3.22;2.75;;;3.10;99.90;;;;;;5034000;28;20029;-47
2022/02/11 05:37:52;;;;;;;6.60;3.35;;;3.00;99.90;;;;;;5034229;28;20477;-48
2022/02/11 05:40:18;;;;;;;3.92;3.53;;;3.00;99.90;;;;;;5034164;28;20447;-53
2022/02/11 05:42:44;;;;;;;4.38;3.40;;;2.90;99.90;;;;;;5033857;28;20060;-46
2022/02/11 05:45:10;;;;;;;3.33;3.03;;;2.90;99.90;;;;;;5034004;28;20030;-41
2022/02/11 05:47:36;;;;;;;4.45;3.35;;;2.90;99.90;;;;;;5034044;28;20029;-46
2022/02/11 05:50:03;;;;;;;4.03;3.15;;;2.90;99.90;;;;;;5034072;28;20495;-45
2022/02/11 05:52:33;;;;;;;6.30;3.38;;;2.90;99.90;;;;;;5034539;28;20290;-46
2022/02/11 05:54:59;;;;;;;3.40;3.08;;;3.00;99.90;;;;;;5033644;28;20029;-42
2022/02/11 05:57:25;;;;;;;3.67;3.33;;;2.90;99.90;;;;;;5046282;22;20041;-44
2022/02/11 05:59:51;;;;;;;3.35;3.05;;;2.90;99.90;;;;;;5033417;28;20037;-46
2022/02/11 06:02:17;;;;;;;8.85;3.45;;;2.90;99.90;;;;;;5033451;28;20021;-47
2022/02/11 06:04:43;;;;;;;6.53;3.97;;;2.90;99.90;;;;;;5033303;28;20029;-45
2022/02/11 06:07:08;;;;;;;3.35;2.80;;;2.90;99.90;;;;;;5033356;28;20037;-44
2022/02/11 06:09:34;;;;;;;4.07;3.15;;;2.90;99.90;;;;;;5033299;28;20037;-44
2022/02/11 06:11:59;;;;;;;3.20;2.88;;;2.90;99.90;;;;;;5031539;28;20509;-46
2022/02/11 06:14:25;;;;;;;8.73;4.40;;;2.90;99.90;;;;;;5031727;28;20026;-48
2022/02/11 06:16:51;;;;;;;7.82;3.95;;;2.90;99.90;;;;;;5033224;28;20079;-43
2022/02/11 06:19:16;;;;;;;4.30;3.30;;;2.90;99.90;;;;;;5031617;28;20021;-47
2022/02/11 06:21:42;;;;;;;8.10;3.80;;;2.90;99.90;;;;;;5031776;28;20079;-44
2022/02/11 06:24:07;;;;;;;8.15;4.47;;;2.90;99.90;;;;;;5032599;28;20112;-45
2022/02/11 06:26:33;;;;;;;9.18;4.25;;;2.90;99.90;;;;;;5032991;28;20408;-45
2022/02/11 06:28:59;;;;;;;6.57;3.65;;;2.80;99.90;;;;;;5032971;28;20112;-46
2022/02/11 06:31:24;;;;;;;11.27;4.65;;;2.70;99.90;;;;;;5033139;28;20492;-45
2022/02/11 06:33:51;;;;;;;5.90;4.03;;;2.70;99.90;;;;;;5032781;28;20108;-44
2022/02/11 06:36:17;;;;;;;7.88;4.38;;;2.80;99.90;;;;;;5032866;28;20453;-45
2022/02/11 06:38:42;;;;;;;8.60;4.18;;;2.90;99.90;;;;;;5033079;28;20057;-45
2022/02/11 06:41:08;;;;;;;8.85;4.65;;;2.80;99.90;;;;;;5031740;28;20492;-45
2022/02/11 06:43:33;;;;;;;10.35;4.20;;;2.80;99.90;;;;;;5032514;28;20109;-44
2022/02/11 06:45:59;;;;;;;8.38;5.40;;;2.80;99.90;;;;;;5032922;28;20040;-45
2022/02/11 06:48:25;;;;;;;7.10;4.57;;;2.80;99.90;;;;;;5032563;28;20033;-44
2022/02/11 06:50:55;;;;;;;14.15;4.43;;;2.80;99.90;;;;;;5032270;28;20037;-45
2022/02/11 06:53:21;;;;;;;8.43;4.72;;;2.80;99.90;;;;;;5032325;28;20374;-46
2022/02/11 06:55:47;;;;;;;6.85;4.38;;;2.80;99.90;;;;;;5032267;28;20023;-46
2022/02/11 06:58:14;;;;;;;5.72;4.18;;;2.80;99.90;;;;;;5032487;28;20025;-45
2022/02/11 07:00:43;;;;;;;14.75;5.30;;;2.90;99.90;;;;;;5032526;28;20028;-47
2022/02/11 07:03:09;;;;;;;7.03;4.85;;;3.00;99.90;;;;;;5032087;28;20021;-49
2022/02/11 07:05:34;;;;;;;8.23;4.18;;;3.10;99.90;;;;;;5032230;28;20025;-47
2022/02/11 07:08:00;;;;;;;9.07;4.47;;;3.20;99.90;;;;;;5031099;28;20071;-47
2022/02/11 07:10:26;;;;;;;8.95;4.63;;;3.30;99.90;;;;;;5031711;28;20025;-54
2022/02/11 07:12:51;;;;;;;6.90;5.28;;;3.40;99.90;;;;;;5032343;28;20461;-44
2022/02/11 07:15:17;;;;;;;6.70;4.55;;;3.50;99.90;;;;;;5031571;28;20061;-44
2022/02/11 07:17:42;;;;;;;9.10;4.65;;;3.60;99.90;;;;;;5022052;28;20101;-45
2022/02/11 07:20:10;;;;;;;7.65;4.15;;;3.70;99.90;;;;;;5012205;28;20079;-45
2022/02/11 07:22:37;;;;;;;6.43;4.15;;;3.80;99.90;;;;;;5027519;28;20161;-46
2022/02/11 07:25:14;;;;;;;6.53;3.85;;;3.90;99.90;;;;;;5021129;28;20408;-44
2022/02/11 07:27:40;;;;;;;4.97;4.47;;;3.80;99.90;;;;;;5030558;28;20505;-43
2022/02/11 07:30:07;;;;;;;6.28;4.35;;;3.90;99.90;;;;;;5031008;28;20045;-44
2022/02/11 07:32:33;;;;;;;7.80;4.45;;;4.00;99.90;;;;;;5031422;28;20033;-45
2022/02/11 07:35:03;;;;;;;8.32;4.20;;;3.80;99.90;;;;;;5031138;28;20238;-44
2022/02/11 07:37:30;;;;;;;7.15;4.38;;;3.80;99.90;;;;;;5031456;28;20397;-46
2022/02/11 07:39:57;;;;;;;8.38;3.70;;;3.70;99.90;;;;;;5016366;28;20390;-45
2022/02/11 07:42:24;;;;;;;8.35;4.03;;;3.70;99.90;;;;;;5019307;28;20180;-46
2022/02/11 07:44:49;;;;;;;7.25;4.78;;;3.70;99.90;;;;;;5028505;28;20021;-48
2022/02/11 07:47:16;;;;;;;11.60;4.93;;;3.70;99.90;;;;;;5029268;28;20097;-46
2022/02/11 07:49:42;;;;;;;14.25;5.20;;;3.70;99.90;;;;;;5028381;28;20032;-45
2022/02/11 07:52:07;;;;;;;7.75;4.22;;;3.70;99.90;;;;;;5031235;28;20037;-43
2022/02/11 07:54:33;;;;;;;7.00;4.72;;;3.50;99.90;;;;;;5026615;28;20374;-46
2022/02/11 07:56:59;;;;;;;12.93;5.40;;;3.60;99.90;;;;;;5031374;28;20037;-46
2022/02/11 07:59:24;;;;;;;11.25;5.78;;;3.60;99.90;;;;;;5031433;28;20080;-44
2022/02/11 08:01:50;;;;;;;15.27;5.72;;;3.50;99.90;;;;;;5031326;28;20113;-43
2022/02/11 08:04:15;;;;;;;16.42;5.30;;;3.60;99.90;;;;;;5031035;28;20504;-46
2022/02/11 08:06:41;;;;;;;14.02;4.97;;;3.70;99.90;;;;;;5031465;28;20076;-45
2022/02/11 08:09:07;;;;;;;10.77;4.70;;;3.80;99.90;;;;;;5031486;28;20029;-46
2022/02/11 08:11:32;;;;;;;8.32;4.60;;;3.90;99.90;;;;;;5031371;28;20029;-50
2022/02/11 08:13:58;;;;;;;13.40;6.28;;;4.00;99.90;;;;;;5029821;28;20450;-47
2022/02/11 08:16:24;;;;;;;10.15;5.53;;;4.10;99.90;;;;;;5031497;28;20021;-49
2022/02/11 08:18:50;;;;;;;10.77;4.72;;;4.10;99.90;;;;;;5031320;28;20025;-43
2022/02/11 08:21:16;;;;;;;10.38;5.50;;;4.20;99.90;;;;;;5031398;28;20489;-44
2022/02/11 08:23:42;;;;;;;11.20;5.05;;;4.40;99.90;;;;;;5031082;28;20025;-43
2022/02/11 08:26:08;;;;;;;13.45;4.68;;;4.50;99.90;;;;;;5031008;28;20409;-44
2022/02/11 08:28:33;;;;;;;14.57;5.55;;;4.50;99.90;;;;;;5030031;28;20141;-44
2022/02/11 08:30:59;;;;;;;14.40;5.50;;;4.50;99.90;;;;;;5031131;28;20511;-45
2022/02/11 08:33:25;;;;;;;14.95;4.25;;;4.50;99.90;;;;;;5030969;28;20022;-47
2022/02/11 08:35:56;;;;;;;13.38;4.78;;;4.40;99.90;;;;;;5031075;28;20021;-53
2022/02/11 08:38:25;;;;;;;10.80;4.65;;;4.60;99.90;;;;;;5031143;28;20018;-44
2022/02/11 08:40:52;;;;;;;8.80;4.13;;;4.50;99.90;;;;;;5031030;28;20026;-45
2022/02/11 08:43:18;;;;;;;12.18;4.70;;;4.60;99.90;;;;;;5031099;28;20120;-45
2022/02/11 08:45:44;;;;;;;10.68;4.53;;;4.70;99.90;;;;;;5031071;28;20029;-44
2022/02/11 08:48:11;;;;;;;12.80;4.40;;;4.80;99.90;;;;;;5016402;28;20036;-44
2022/02/11 08:50:38;;;;;;;11.52;3.67;;;5.00;99.90;;;;;;5034805;28;20240;-46
2022/02/11 08:53:04;;;;;;;6.57;4.13;;;5.10;99.90;;;;;;5034501;28;20080;-44
2022/02/11 08:55:30;;;;;;;8.98;4.43;;;5.30;99.90;;;;;;5034624;28;20108;-46
2022/02/11 08:57:59;;;;;;;8.90;4.25;;;5.40;99.90;;;;;;5033319;28;20505;-45
2022/02/11 09:00:26;;;;;;;13.45;4.00;;;5.60;99.90;;;;;;5034446;28;20484;-44
2022/02/11 09:02:51;;;;;;;13.45;4.82;;;5.70;99.90;;;;;;5034270;28;20443;-43
2022/02/11 09:05:21;;;;;;;9.55;4.00;;;5.70;99.90;;;;;;5034185;28;20128;-44
2022/02/11 09:07:50;;;;;;;9.23;3.63;;;5.70;99.90;;;;;;5034469;28;20017;-48
2022/02/11 09:10:16;;;;;;;10.52;4.50;;;5.70;99.90;;;;;;5034378;28;20025;-45
2022/02/11 09:12:41;;;;;;;15.05;4.60;;;5.60;99.90;;;;;;5034085;28;20056;-45
2022/02/11 09:15:07;;;;;;;14.68;4.80;;;5.60;99.90;;;;;;5034156;28;20026;-49
2022/02/11 09:17:32;;;;;;;8.02;4.30;;;5.70;99.90;;;;;;5033594;28;20017;-45
2022/02/11 09:19:58;;;;;;;12.23;4.43;;;5.90;99.90;;;;;;5020364;28;20484;-46
2022/02/11 09:22:23;;;;;;;10.20;4.72;;;6.00;99.90;;;;;;5032881;28;20489;-51
2022/02/11 09:24:51;;;;;;;12.13;3.50;;;6.20;99.90;;;;;;5024706;28;20030;-46
2022/02/11 09:27:17;;;;;;;9.00;3.70;;;6.20;99.90;;;;;;5014392;28;20022;-45
2022/02/11 09:29:43;;;;;;;6.40;3.92;;;6.20;99.90;;;;;;5022087;28;20047;-47
2022/02/11 09:32:08;;;;;;;8.13;4.10;;;6.10;99.90;;;;;;5021819;28;20037;-47
2022/02/11 09:34:35;;;;;;;10.95;3.67;;;6.00;99.90;;;;;;5013978;28;20026;-46
2022/02/11 09:37:01;;;;;;;11.85;4.60;;;6.00;99.90;;;;;;5032396;28;20026;-43
2022/02/11 09:39:26;;;;;;;6.63;3.53;;;6.80;99.90;;;;;;5033846;28;20492;-44
2022/02/11 09:41:53;;;;;;;8.85;3.20;;;7.60;99.90;;;;;;5033584;28;20022;-46
2022/02/11 09:44:22;;;;;;;8.93;3.53;;;8.60;99.90;;;;;;5033530;28;20104;-45
2022/02/11 09:46:49;;;;;;;7.93;3.35;;;9.60;99.90;;;;;;5033675;28;20022;-44
2022/02/11 09:49:14;;;;;;;7.00;3.00;;;10.50;99.90;;;;;;5033084;28;20059;-45
2022/02/11 09:51:41;;;;;;;8.15;2.90;;;10.90;99.30;;;;;;5029842;28;20467;-46
2022/02/11 09:54:07;;;;;;;11.57;3.38;;;11.00;99.20;;;;;;5032958;28;20033;-45
2022/02/11 09:56:32;;;;;;;4.32;2.22;;;11.30;98.50;;;;;;5032613;28;20026;-45
2022/02/11 09:58:59;;;;;;;6.75;2.60;;;11.60;97.60;;;;;;5032561;28;20405;-45
2022/02/11 10:01:25;;;;;;;6.90;2.45;;;11.90;97.20;;;;;;5033373;28;20019;-45
2022/02/11 10:04:11;;;;;;;7.40;2.75;;;12.00;96.80;;;;;;5029818;28;20028;-42
2022/02/11 10:06:38;;;;;;;9.65;2.83;;;12.10;96.20;;;;;;5013616;28;20026;-44
2022/02/11 10:09:05;;;;;;;12.05;3.17;;;12.10;96.50;;;;;;5013651;28;20030;-45
2022/02/11 10:11:32;;;;;;;11.13;2.22;;;12.20;97.30;;;;;;5013638;28;20029;-46
2022/02/11 10:14:21;;;;;;;6.07;2.17;;;12.40;96.50;;;;;;5013375;28;20026;-46
2022/02/11 10:17:04;;;;;;;6.63;1.92;;;11.90;95.80;;;;;;5022787;28;20022;-47
2022/02/11 10:19:59;;;;;;;9.80;1.92;;;11.20;95.60;;;;;;5034491;28;20018;-43
2022/02/11 10:22:27;;;;;;;10.90;2.15;;;10.10;97.30;;;;;;5020062;28;20068;-45
2022/02/11 10:24:55;;;;;;;7.07;2.20;;;9.70;98.70;;;;;;5033003;28;20108;-44
2022/02/11 10:27:29;;;;;;;8.63;2.58;;;9.70;98.30;;;;;;5032447;28;20041;-43
2022/02/11 10:30:04;;;;;;;10.48;2.50;;;9.70;98.70;;;;;;5018773;28;20116;-44
2022/02/11 10:32:36;;;;;;;9.48;2.20;;;9.70;98.40;;;;;;5032749;28;20017;-47
2022/02/11 10:35:01;;;;;;;7.32;2.10;;;10.40;98.40;;;;;;5032706;28;20021;-44
2022/02/11 10:37:27;;;;;;;9.93;2.95;;;11.00;97.00;;;;;;5032298;28;20036;-47
2022/02/11 10:39:57;;;;;;;10.18;2.40;;;11.00;96.10;;;;;;5028054;28;20033;-46
2022/02/11 10:42:41;;;;;;;4.35;1.80;;;10.40;97.10;;;;;;5032653;28;20026;-49
2022/02/11 10:45:25;;;;;;;8.05;2.72;;;9.20;99.50;;;;;;5026321;28;20091;-46
2022/02/11 10:48:11;;;;;;;19.92;3.53;;;8.40;99.90;;;;;;5023068;28;20029;-47
2022/02/11 10:50:37;;;;;;;9.60;3.67;;;7.90;99.90;;;;;;5031691;28;20465;-47
2022/02/11 10:53:03;;;;;;;12.13;2.65;;;7.60;99.90;;;;;;5024945;28;20109;-44
2022/02/11 10:55:28;;;;;;;7.55;2.30;;;7.40;99.90;;;;;;5012785;28;20101;-44
2022/02/11 10:57:55;;;;;;;6.72;1.98;;;7.30;99.90;;;;;;5025139;28;20034;-47
2022/02/11 11:00:21;;;;;;;3.05;1.83;;;7.40;99.90;;;;;;5032315;28;20056;-44
2022/02/11 11:02:47;;;;;;;3.58;1.60;;;7.40;99.90;;;;;;5032715;28;20053;-46
2022/02/11 11:05:12;;;;;;;9.35;2.88;;;7.40;99.90;;;;;;5013085;28;20030;-44
2022/02/11 11:07:40;;;;;;;5.30;1.40;;;7.10;99.90;;;;;;5012334;28;20092;-44
2022/02/11 11:10:09;;;;;;;3.63;1.27;;;6.90;99.90;;;;;;5013194;28;20021;-47
2022/02/11 11:12:40;;;;;;;2.60;1.42;;;6.80;99.90;;;;;;5012255;28;20034;-43
2022/02/11 11:15:06;;;;;;;2.83;1.08;;;6.50;99.90;;;;;;5020414;28;20087;-46
2022/02/11 11:17:35;;;;;;;8.43;2.15;;;6.30;99.90;;;;;;5031594;28;20481;-45
2022/02/11 11:20:01;;;;;;;2.78;1.30;;;6.10;99.90;;;;;;5044596;28;20404;-43
2022/02/11 11:22:40;;;;;;;8.38;2.95;;;6.10;99.90;;;;;;5048417;28;20096;-52
2022/02/11 11:25:08;;;;;;;4.35;1.23;;;6.00;99.90;;;;;;5023051;28;20048;-52
2022/02/11 11:27:54;;;;;;;2.78;1.25;;;6.00;99.90;;;;;;5010806;28;20026;-43
2022/02/11 11:30:21;;;;;;;;;;;5.90;99.90;;;;;;5030461;28;20117;-42
2022/02/11 11:33:08;;;;;;;3.25;0.90;;;5.70;99.90;;;;;;5031629;28;19955;-46
2022/02/11 11:35:39;;;;;;;1.83;0.95;;;5.70;99.90;;;;;;5031532;28;20080;-45
2022/02/11 11:38:13;;;;;;;4.85;1.75;;;5.80;99.90;;;;;;5031580;28;20024;-44
2022/02/11 11:41:09;;;;;;;2.75;1.42;;;5.80;99.90;;;;;;5028633;28;20076;-49
2022/02/11 11:43:37;;;;;;;4.15;1.40;;;5.90;99.90;;;;;;4974698;28;20120;-47
2022/02/11 11:46:05;;;;;;;2.30;1.42;;;6.00;99.90;;;;;;5010582;28;20110;-45
2022/02/11 11:48:51;;;;;;;4.20;1.27;;;6.10;99.90;;;;;;5011322;28;20061;-45
2022/02/11 11:51:17;;;;;;;;;;;6.40;99.90;;;;;;5012158;28;20394;-47
2022/02/11 11:53:42;;;;;;;10.13;2.03;;;6.50;99.90;;;;;;5011183;28;19912;-48
2022/02/11 11:58:45;;;;;;;12.02;2.55;;;6.90;99.90;;;;;;5029681;28;20520;-47
2022/02/11 12:01:18;;;;;;;9.13;1.90;;;7.10;99.90;;;;;;5031518;28;20508;-46
2022/02/11 12:04:15;;;;;;;7.35;2.58;;;7.20;99.90;;;;;;5023793;28;20034;-47
2022/02/11 12:06:41;;;;;;;7.70;1.90;;;7.40;99.90;;;;;;5022173;28;20033;-47
2022/02/11 12:09:06;;;;;;;6.07;1.85;;;7.70;99.90;;;;;;5030831;28;20075;-47
2022/02/11 12:11:32;;;;;;;9.85;2.22;;;7.90;99.90;;;;;;5030034;28;20396;-47
2022/02/11 12:13:58;;;;;;;7.25;1.67;;;8.10;99.90;;;;;;5042384;28;20087;-47
2022/02/11 12:16:24;;;;;;;10.52;2.05;;;8.30;99.90;;;;;;5015513;28;20389;-47
2022/02/11 12:18:50;;;;;;;9.60;1.80;;;8.20;99.90;;;;;;5031090;28;20037;-51
2022/02/11 12:21:16;;;;;;;5.82;2.20;;;8.10;99.90;;;;;;5029621;28;20408;-51
2022/02/11 12:29:11;;;;;;;10.65;2.45;;;8.20;99.90;;;;;;5032957;28;20405;-46
2022/02/11 12:31:38;;;;;;;10.55;2.05;;;8.30;99.90;;;;;;5035324;28;20029;-50
2022/02/11 12:34:16;;;;;;;7.47;2.30;;;8.40;99.90;;;;;;5034735;28;20493;-43
2022/02/11 12:36:42;;;;;;;14.27;2.15;;;8.40;99.90;;;;;;5035081;28;20108;-46
2022/02/11 12:39:08;;;;;;;12.63;2.45;;;8.40;99.90;;;;;;5054627;28;20140;-47
2022/02/11 12:41:48;;;;;;;19.40;9.27;;;8.50;99.90;;;;;;5035602;28;20583;-46
2022/02/11 12:44:42;;;;;;;9.82;2.65;;;8.50;99.90;;;;;;5044873;28;20051;-48
2022/02/11 12:47:08;;;;;;;7.30;2.35;;;8.50;99.90;;;;;;5050195;28;20037;-45
2022/02/11 12:49:46;;;;;;;6.65;2.20;;;8.60;99.90;;;;;;5055206;28;20369;-46
2022/02/11 12:52:18;;;;;;;13.25;2.58;;;8.70;99.90;;;;;;5042445;28;20116;-48
2022/02/11 12:54:58;;;;;;;9.23;1.55;;;8.70;99.30;;;;;;5033925;28;20033;-49
2022/02/11 12:57:23;;;;;;;8.15;2.03;;;8.70;97.70;;;;;;5034348;28;20026;-51
2022/02/11 12:59:50;;;;;;;6.78;1.42;;;8.70;97.70;;;;;;5034612;28;20025;-44
2022/02/11 13:02:32;;;;;;;7.75;2.03;;;8.60;97.40;;;;;;5034791;28;20481;-46
2022/02/11 13:05:10;;;;;;;11.23;1.60;;;8.20;99.90;;;;;;5032798;28;20485;-46
2022/02/11 13:07:40;;;;;;;7.80;1.88;;;7.90;99.90;;;;;;5034289;28;20021;-45
2022/02/11 13:10:07;;;;;;;6.45;2.10;;;7.60;99.90;;;;;;5033501;28;20033;-47
2022/02/11 13:12:41;;;;;;;9.27;1.90;;;7.30;99.90;;;;;;5034533;28;20400;-43
2022/02/11 13:15:10;;;;;;;8.88;2.40;;;7.20;99.90;;;;;;5034459;28;20083;-47
2022/02/11 13:17:35;;;;;;;9.38;1.88;;;7.10;99.90;;;;;;5033007;28;20045;-45
2022/02/11 13:20:09;;;;;;;7.25;2.30;;;7.10;99.90;;;;;;5034135;28;20060;-51
2022/02/11 13:22:35;;;;;;;7.97;2.00;;;7.10;99.90;;;;;;5032950;28;20029;-46
2022/02/11 13:25:01;;;;;;;10.95;2.00;;;7.00;99.90;;;;;;5034160;28;20081;-51
2022/02/11 13:27:50;;;;;;;3.78;1.38;;;7.00;99.90;;;;;;5033635;28;20473;-44
2022/02/11 13:30:29;;;;;;;4.88;1.63;;;7.00;99.90;;;;;;5034653;28;20121;-50
2022/02/11 13:33:19;;;;;;;5.50;1.70;;;7.00;99.90;;;;;;5033015;28;20026;-47
2022/02/11 13:35:45;;;;;;;4.68;1.75;;;7.10;99.90;;;;;;5033677;28;20459;-47
2022/02/11 13:38:11;;;;;;;10.50;2.75;;;7.10;99.90;;;;;;5034276;28;20045;-49
2022/02/11 13:40:37;;;;;;;8.40;2.33;;;7.10;99.90;;;;;;5033927;28;20030;-49
2022/02/11 13:43:07;;;;;;;8.65;2.25;;;7.10;99.90;;;;;;5033372;28;20021;-48
2022/02/11 13:46:02;;;;;;;9.98;2.50;;;7.00;99.90;;;;;;5034438;28;20029;-48
2022/02/11 13:48:29;;;;;;;7.78;2.03;;;7.00;99.90;;;;;;5033786;28;20021;-47
2022/02/11 13:51:05;;;;;;;9.30;2.15;;;7.00;99.90;;;;;;5032775;28;20036;-47
2022/02/11 13:53:35;;;;;;;10.75;2.75;;;7.10;99.90;;;;;;5032409;28;20068;-52
2022/02/11 13:56:02;;;;;;;11.40;2.45;;;7.10;99.90;;;;;;5033710;28;20026;-48
2022/02/11 13:58:28;;;;;;;7.65;2.47;;;7.10;99.90;;;;;;5033690;28;20117;-48
2022/02/11 14:00:54;;;;;;;10.20;2.42;;;7.20;99.90;;;;;;5033692;28;20053;-48
2022/02/11 14:03:25;;;;;;;10.80;2.30;;;7.30;99.90;;;;;;5033272;28;20025;-50
2022/02/11 14:05:56;;;;;;;15.32;2.92;;;7.40;99.90;;;;;;5033860;28;20025;-49
2022/02/11 14:08:23;;;;;;;7.25;1.88;;;7.60;99.90;;;;;;5033856;28;20100;-52
2022/02/11 14:11:08;;;;;;;11.32;2.38;;;7.50;99.90;;;;;;5034275;28;20056;-48
2022/02/11 14:13:34;;;;;;;5.97;1.73;;;7.60;99.90;;;;;;5033739;28;20481;-48
2022/02/11 14:15:59;;;;;;;10.85;1.55;;;7.30;99.90;;;;;;5032533;28;20037;-47
2022/02/11 14:18:25;;;;;;;6.80;2.67;;;7.30;99.90;;;;;;5033525;28;20491;-45
2022/02/11 14:20:50;;;;;;;7.63;3.10;;;7.20;99.90;;;;;;5033727;28;20033;-48
2022/02/11 14:23:17;;;;;;;9.40;1.98;;;7.20;99.90;;;;;;5033399;28;20543;-52
2022/02/11 14:25:46;;;;;;;6.15;1.70;;;7.10;99.90;;;;;;5033674;28;20396;-51
2022/02/11 14:28:13;;;;;;;4.63;1.83;;;7.10;99.90;;;;;;5033434;28;20025;-46
2022/02/11 14:30:40;;;;;;;7.00;2.45;;;7.20;99.90;;;;;;5033823;28;20025;-49
2022/02/11 14:33:06;;;;;;;9.75;1.83;;;7.20;99.90;;;;;;5032809;28;20017;-47
2022/02/11 14:35:31;;;;;;;4.93;1.90;;;7.30;99.90;;;;;;5032970;28;20396;-47
2022/02/11 14:37:57;;;;;;;9.13;2.33;;;7.30;99.90;;;;;;5032998;28;20018;-48
2022/02/11 14:40:22;;;;;;;15.73;2.00;;;7.40;99.90;;;;;;5032947;28;20484;-46
2022/02/11 14:42:48;;;;;;;6.63;1.92;;;7.30;99.90;;;;;;5032687;28;20030;-46
2022/02/11 14:45:14;;;;;;;11.60;1.98;;;7.40;99.90;;;;;;5032666;28;20152;-51
2022/02/11 14:47:39;;;;;;;11.77;2.33;;;7.40;99.90;;;;;;5032209;28;20373;-51
2022/02/11 14:50:06;;;;;;;11.95;2.05;;;7.30;99.90;;;;;;5032943;28;20389;-47
2022/02/11 14:52:32;;;;;;;11.55;2.63;;;7.30;99.90;;;;;;5031391;28;20025;-48
2022/02/11 14:55:04;;;;;;;10.55;2.80;;;7.40;99.90;;;;;;5032518;28;20040;-55
2022/02/11 14:57:29;;;;;;;12.88;2.92;;;7.40;99.90;;;;;;5032462;28;20033;-46
2022/02/11 14:59:55;;;;;;;17.40;4.68;;;7.30;99.90;;;;;;5032682;28;20094;-47
2022/02/11 15:02:20;;;;;;;8.38;2.33;;;7.40;99.90;;;;;;5031001;28;20029;-48
2022/02/11 15:04:46;;;;;;;15.43;2.28;;;7.40;99.90;;;;;;5032118;28;20104;-52
2022/02/11 15:07:12;;;;;;;6.50;2.10;;;7.30;99.90;;;;;;5032355;28;20109;-51
2022/02/11 15:09:38;;;;;;;10.93;2.83;;;7.30;99.90;;;;;;5032366;28;20057;-46
2022/02/11 15:12:04;;;;;;;7.22;2.25;;;7.20;99.90;;;;;;5032506;28;20033;-48
2022/02/11 15:14:30;;;;;;;7.70;2.30;;;7.20;99.90;;;;;;5031894;28;20049;-47
2022/02/11 15:16:55;;;;;;;13.68;2.67;;;7.30;99.90;;;;;;5032332;28;20049;-47
2022/02/11 15:19:21;;;;;;;6.18;2.58;;;7.20;99.90;;;;;;5032284;28;20021;-49
2022/02/11 15:21:47;;;;;;;8.90;2.63;;;7.30;99.90;;;;;;5032181;28;20025;-47
2022/02/11 15:24:13;;;;;;;8.00;2.55;;;7.20;99.90;;;;;;5031591;28;20136;-47
2022/02/11 15:26:39;;;;;;;11.20;3.00;;;7.10;99.90;;;;;;5031989;28;20025;-47
2022/02/11 15:29:05;;;;;;;6.05;2.25;;;7.10;99.90;;;;;;5031981;28;20029;-47
2022/02/11 15:31:31;;;;;;;13.32;2.80;;;7.00;99.90;;;;;;5030612;28;20029;-46
2022/02/11 15:33:56;;;;;;;10.00;2.63;;;7.00;99.90;;;;;;5032136;28;20393;-49
2022/02/11 15:36:23;;;;;;;7.30;2.30;;;6.90;99.90;;;;;;5031945;28;20479;-50
2022/02/11 15:38:49;;;;;;;9.70;2.67;;;6.90;99.90;;;;;;5030958;28;20115;-49
2022/02/11 15:41:14;;;;;;;13.95;2.30;;;6.80;99.90;;;;;;5032015;28;20029;-49
2022/02/11 15:43:40;;;;;;;8.43;3.15;;;6.80;99.90;;;;;;5031959;28;20370;-46
2022/02/11 15:46:07;;;;;;;9.40;3.05;;;6.80;99.90;;;;;;5031967;28;20057;-46
2022/02/11 15:48:34;;;;;;;16.48;3.85;;;6.90;99.90;;;;;;5031210;28;20037;-46
2022/02/11 15:51:01;;;;;;;11.70;3.38;;;6.90;99.90;;;;;;5031664;28;20034;-45
2022/02/11 15:53:28;;;;;;;17.25;3.70;;;6.90;99.90;;;;;;5031195;28;20022;-54
2022/02/11 15:55:54;;;;;;;8.55;2.65;;;6.90;99.90;;;;;;5031364;28;20025;-51
2022/02/11 15:58:20;;;;;;;11.65;3.50;;;7.00;99.90;;;;;;5031145;28;20501;-47
2022/02/11 16:00:45;;;;;;;12.48;3.17;;;7.00;99.90;;;;;;5031877;28;20075;-43
2022/02/11 16:03:11;;;;;;;14.63;2.97;;;7.00;99.90;;;;;;5031304;28;20106;-52
2022/02/11 16:05:37;;;;;;;7.78;3.83;;;7.00;99.90;;;;;;5031197;28;20026;-49
2022/02/11 16:08:03;;;;;;;12.35;2.90;;;6.90;99.90;;;;;;5031333;28;20029;-52
2022/02/11 16:10:29;;;;;;;17.17;3.92;;;6.80;99.90;;;;;;5031272;28;20071;-50
2022/02/11 16:12:55;;;;;;;14.85;3.53;;;6.80;99.90;;;;;;5031108;28;20441;-48
2022/02/11 16:15:22;;;;;;;11.40;3.10;;;6.80;99.90;;;;;;5031410;28;20022;-48
2022/02/11 16:18:02;;;;;;;11.57;2.58;;;6.70;99.90;;;;;;5031257;28;20083;-45
2022/02/11 16:20:29;;;;;;;8.18;3.25;;;6.50;99.90;;;;;;5031319;28;20013;-44
2022/02/11 16:22:55;;;;;;;16.75;3.85;;;6.50;99.90;;;;;;5031150;28;20025;-50
2022/02/11 16:25:21;;;;;;;15.38;3.33;;;6.50;99.90;;;;;;5031076;28;20034;-51
2022/02/11 16:27:47;;;;;;;12.85;3.72;;;6.40;99.90;;;;;;5031254;28;20489;-51
2022/02/11 16:30:13;;;;;;;7.20;3.15;;;6.20;99.90;;;;;;5031124;28;20025;-48
2022/02/11 16:32:38;;;;;;;14.88;2.90;;;6.20;99.90;;;;;;5030722;28;20032;-51
2022/02/11 16:35:04;;;;;;;9.23;2.92;;;6.20;99.90;;;;;;5030749;28;20515;-48
2022/02/11 16:37:30;;;;;;;8.55;2.00;;;6.10;99.90;;;;;;5028311;28;20031;-52
2022/02/11 16:39:55;;;;;;;12.50;2.40;;;6.00;99.90;;;;;;5010820;28;20084;-44